createdAt,value
2022-09-14T00:00:34.489Z,97.90
2022-09-14T00:03:02.866Z,97.50
2022-09-14T00:05:29.613Z,97.50
2022-09-14T00:07:56.309Z,97.40
2022-09-14T00:10:22.989Z,97.60
2022-09-14T00:12:49.649Z,97.90
2022-09-14T00:15:16.488Z,97.90
2022-09-14T00:17:43.152Z,98.50
2022-09-14T00:20:11.482Z,98.10
2022-09-14T00:22:38.185Z,97.90
2022-09-14T00:25:06.296Z,98.10
2022-09-14T00:27:33.014Z,98.80
2022-09-14T00:29:59.684Z,98.10
2022-09-14T00:32:26.428Z,97.60
2022-09-14T00:34:53.121Z,98.10
2022-09-14T00:37:21.165Z,98.20
2022-09-14T00:39:47.897Z,97.70
2022-09-14T00:42:16.967Z,98.00
2022-09-14T00:45:02.513Z,97.90
2022-09-14T00:47:31.771Z,98.70
2022-09-14T00:50:02.449Z,98.20
2022-09-14T00:52:33.980Z,98.90
2022-09-14T00:55:02.983Z,98.90
2022-09-14T00:57:33.998Z,98.20
2022-09-14T01:00:00.821Z,98.30
2022-09-14T01:02:28.390Z,98.20
2022-09-14T01:04:55.771Z,98.10
2022-09-14T01:07:50.813Z,99.00
2022-09-14T01:10:30.197Z,98.20
2022-09-14T01:13:08.585Z,98.70
2022-09-14T01:15:45.575Z,98.80
2022-09-14T01:18:17.963Z,98.70
2022-09-14T01:20:51.320Z,98.80
2022-09-14T01:23:26.903Z,98.80
2022-09-14T01:26:26.653Z,98.90
2022-09-14T01:28:58.675Z,98.70
2022-09-14T01:31:30.612Z,98.60
2022-09-14T01:34:05.473Z,98.20
2022-09-14T01:36:36.407Z,99.00
2022-09-14T01:39:04.003Z,98.60
2022-09-14T01:41:32.499Z,98.50
2022-09-14T01:44:05.532Z,98.00
2022-09-14T01:46:41.467Z,98.70
2022-09-14T01:49:14.834Z,98.60
2022-09-14T01:51:45.542Z,98.70
2022-09-14T01:54:16.131Z,98.90
2022-09-14T01:56:50.749Z,99.40
2022-09-14T01:59:22.833Z,98.80
2022-09-14T02:01:52.779Z,98.90
2022-09-14T02:04:37.913Z,98.60
2022-09-14T02:07:04.766Z,98.70
2022-09-14T02:09:31.623Z,99.00
2022-09-14T02:11:58.504Z,99.40
2022-09-14T02:14:27.679Z,99.50
2022-09-14T02:16:54.406Z,99.80
2022-09-14T02:19:23.814Z,99.20
2022-09-14T02:21:50.830Z,98.90
2022-09-14T02:24:18.264Z,99.30
2022-09-14T02:26:46.962Z,99.30
2022-09-14T02:29:13.695Z,99.30
2022-09-14T02:31:53.858Z,99.30
2022-09-14T02:34:30.231Z,99.20
2022-09-14T02:37:02.587Z,99.50
2022-09-14T02:39:37.348Z,98.90
2022-09-14T02:42:14.065Z,98.80
2022-09-14T02:44:47.545Z,99.20
2022-09-14T02:47:19.245Z,98.60
2022-09-14T02:49:52.439Z,98.50
2022-09-14T02:52:27.256Z,98.80
2022-09-14T02:54:59.418Z,99.50
2022-09-14T02:57:26.457Z,99.40
2022-09-14T02:59:53.555Z,99.90
2022-09-14T03:02:22.100Z,99.90
2022-09-14T03:04:48.921Z,99.80
2022-09-14T03:07:15.623Z,99.60
2022-09-14T03:09:42.354Z,99.10
2022-09-14T03:12:09.041Z,99.70
2022-09-14T03:14:35.768Z,99.90
2022-09-14T03:17:02.463Z,99.90
2022-09-14T03:19:30.478Z,99.90
2022-09-14T03:21:57.316Z,99.60
2022-09-14T03:24:24.090Z,99.80
2022-09-14T03:26:50.788Z,99.90
2022-09-14T03:29:17.476Z,99.90
2022-09-14T03:31:44.999Z,99.90
2022-09-14T03:34:11.717Z,99.90
2022-09-14T03:36:39.751Z,99.90
2022-09-14T03:39:06.406Z,99.90
2022-09-14T03:41:33.141Z,99.90
2022-09-14T03:43:59.894Z,99.90
2022-09-14T03:46:26.676Z,99.90
2022-09-14T03:48:55.002Z,99.90
2022-09-14T03:51:22.146Z,99.90
2022-09-14T03:53:50.259Z,99.90
2022-09-14T03:56:18.599Z,99.90
2022-09-14T03:58:46.514Z,99.90
2022-09-14T04:01:15.216Z,99.90
2022-09-14T04:03:42.527Z,99.90
2022-09-14T04:06:09.960Z,99.90
2022-09-14T04:08:37.869Z,99.90
2022-09-14T04:11:09.841Z,99.90
2022-09-14T04:13:36.974Z,99.90
2022-09-14T04:16:04.190Z,99.90
2022-09-14T04:18:31.718Z,99.90
2022-09-14T04:21:04.527Z,99.90
2022-09-14T04:23:36.587Z,99.90
2022-09-14T04:26:16.838Z,99.90
2022-09-14T04:28:44.150Z,99.90
2022-09-14T04:31:12.219Z,99.90
2022-09-14T04:33:40.558Z,99.90
2022-09-14T04:36:09.384Z,99.90
2022-09-14T04:38:37.487Z,99.90
2022-09-14T04:41:06.300Z,99.90
2022-09-14T04:43:34.639Z,99.90
2022-09-14T04:46:02.549Z,99.90
2022-09-14T04:48:30.499Z,99.90
2022-09-14T04:51:01.252Z,99.90
2022-09-14T04:53:28.042Z,99.90
2022-09-14T04:55:59.476Z,99.90
2022-09-14T04:58:26.180Z,99.90
2022-09-14T05:00:54.450Z,99.90
2022-09-14T05:03:21.392Z,99.90
2022-09-14T05:05:48.380Z,99.90
2022-09-14T05:08:15.502Z,99.90
2022-09-14T05:10:42.552Z,99.90
2022-09-14T05:13:09.253Z,99.90
2022-09-14T05:15:36.009Z,99.90
2022-09-14T05:18:04.283Z,99.90
2022-09-14T05:20:30.982Z,99.90
2022-09-14T05:22:57.715Z,99.90
2022-09-14T05:25:24.402Z,99.90
2022-09-14T05:27:51.142Z,99.90
2022-09-14T05:30:18.139Z,99.90
2022-09-14T05:32:44.831Z,99.90
2022-09-14T05:35:12.987Z,99.90
2022-09-14T05:37:39.722Z,99.90
2022-09-14T05:40:07.583Z,99.90
2022-09-14T05:42:34.458Z,99.90
2022-09-14T05:45:01.261Z,99.90
2022-09-14T05:47:29.428Z,99.90
2022-09-14T05:49:56.170Z,99.90
2022-09-14T05:52:24.533Z,99.90
2022-09-14T05:54:51.231Z,99.90
2022-09-14T05:57:17.933Z,99.90
2022-09-14T05:59:45.691Z,99.90
2022-09-14T06:02:17.459Z,99.90
2022-09-14T06:04:44.721Z,99.90
2022-09-14T06:07:19.155Z,99.90
2022-09-14T06:09:47.288Z,99.90
2022-09-14T06:12:13.987Z,99.90
2022-09-14T06:14:40.746Z,99.90
2022-09-14T06:17:07.440Z,99.90
2022-09-14T06:19:34.279Z,99.90
2022-09-14T06:22:00.977Z,99.90
2022-09-14T06:24:27.671Z,99.90
2022-09-14T06:26:55.712Z,99.90
2022-09-14T06:29:22.419Z,99.90
2022-09-14T06:31:49.321Z,99.90
2022-09-14T06:34:16.254Z,99.90
2022-09-14T06:36:42.957Z,99.90
2022-09-14T06:39:10.473Z,99.90
2022-09-14T06:41:37.153Z,99.90
2022-09-14T06:44:05.191Z,99.90
2022-09-14T06:46:33.656Z,99.90
2022-09-14T06:49:03.113Z,99.90
2022-09-14T06:51:32.627Z,99.90
2022-09-14T06:54:00.561Z,99.90
2022-09-14T06:56:27.795Z,99.90
2022-09-14T06:58:54.569Z,99.90
2022-09-14T07:01:22.636Z,99.90
2022-09-14T07:03:49.424Z,99.90
2022-09-14T07:06:18.261Z,99.90
2022-09-14T07:08:45.409Z,99.90
2022-09-14T07:11:14.058Z,99.90
2022-09-14T07:13:41.080Z,99.90
2022-09-14T07:16:07.793Z,99.90
2022-09-14T07:18:36.340Z,99.90
2022-09-14T07:21:05.638Z,99.90
2022-09-14T07:23:32.713Z,99.90
2022-09-14T07:26:00.733Z,99.90
2022-09-14T07:28:27.518Z,99.90
2022-09-14T07:30:58.817Z,99.90
2022-09-14T07:33:25.757Z,99.90
2022-09-14T07:35:53.922Z,99.90
2022-09-14T07:38:30.765Z,99.90
2022-09-14T07:41:07.952Z,99.90
2022-09-14T07:43:34.727Z,99.90
2022-09-14T07:46:02.614Z,99.90
2022-09-14T07:48:29.681Z,99.90
2022-09-14T07:51:01.168Z,99.90
2022-09-14T07:53:28.391Z,99.90
2022-09-14T07:55:57.637Z,99.90
2022-09-14T07:58:24.366Z,99.90
2022-09-14T08:00:51.088Z,99.90
2022-09-14T08:03:17.758Z,99.90
2022-09-14T08:05:44.422Z,99.90
2022-09-14T08:08:12.486Z,99.90
2022-09-14T08:10:39.201Z,99.90
2022-09-14T08:13:05.892Z,99.90
2022-09-14T08:15:32.601Z,99.90
2022-09-14T08:17:59.290Z,99.90
2022-09-14T08:20:26.017Z,99.90
2022-09-14T08:22:52.715Z,99.90
2022-09-14T08:25:20.751Z,99.90
2022-09-14T08:27:47.465Z,99.90
2022-09-14T08:30:14.287Z,99.90
2022-09-14T08:32:41.034Z,99.90
2022-09-14T08:35:08.553Z,99.90
2022-09-14T08:37:35.226Z,99.90
2022-09-14T08:40:02.599Z,99.90
2022-09-14T08:42:31.244Z,99.90
2022-09-14T08:45:00.856Z,99.90
2022-09-14T08:47:30.170Z,99.90
2022-09-14T08:50:02.615Z,99.90
2022-09-14T08:52:32.929Z,99.90
2022-09-14T08:55:01.148Z,99.90
2022-09-14T08:57:39.231Z,99.90
2022-09-14T09:00:09.285Z,99.90
2022-09-14T09:03:19.136Z,99.90
2022-09-14T09:05:51.862Z,99.90
2022-09-14T09:08:24.860Z,99.90
2022-09-14T09:10:54.209Z,99.90
2022-09-14T09:13:26.431Z,99.90
2022-09-14T09:15:55.295Z,99.90
2022-09-14T09:18:30.699Z,99.90
2022-09-14T09:21:00.971Z,99.90
2022-09-14T09:23:30.186Z,99.90
2022-09-14T09:26:00.473Z,99.90
2022-09-14T09:28:31.496Z,99.90
2022-09-14T09:31:02.292Z,99.90
2022-09-14T09:33:29.011Z,99.90
2022-09-14T09:35:56.100Z,99.90
2022-09-14T09:38:25.007Z,99.90
2022-09-14T09:40:54.739Z,99.90
2022-09-14T09:43:45.270Z,99.90
2022-09-14T09:46:11.847Z,99.90
2022-09-14T09:48:41.661Z,99.90
2022-09-14T09:51:11.181Z,99.90
2022-09-14T09:53:45.965Z,99.90
2022-09-14T09:56:19.237Z,99.90
2022-09-14T09:58:45.947Z,99.90
2022-09-14T10:01:22.374Z,99.90
2022-09-14T10:04:02.764Z,99.90
2022-09-14T10:06:30.135Z,99.90
2022-09-14T10:08:58.307Z,99.90
2022-09-14T10:11:34.503Z,99.90
2022-09-14T10:14:01.393Z,99.90
2022-09-14T10:16:36.428Z,99.90
2022-09-14T10:19:03.574Z,99.90
2022-09-14T10:21:30.458Z,99.90
2022-09-14T10:24:06.813Z,99.90
2022-09-14T10:26:37.283Z,99.90
2022-09-14T10:29:26.525Z,99.90
2022-09-14T10:31:59.221Z,99.90
2022-09-14T10:34:25.995Z,99.90
2022-09-14T10:36:58.562Z,99.90
2022-09-14T10:39:29.881Z,99.90
2022-09-14T10:42:07.954Z,99.90
2022-09-14T10:44:51.803Z,99.90
2022-09-14T10:47:36.381Z,99.90
2022-09-14T10:50:19.697Z,99.90
2022-09-14T10:52:56.405Z,99.90
2022-09-14T10:55:33.806Z,99.90
2022-09-14T10:58:17.980Z,99.90
2022-09-14T11:01:00.431Z,99.90
2022-09-14T11:03:46.018Z,99.90
2022-09-14T11:06:25.178Z,99.90
2022-09-14T11:08:58.117Z,99.90
2022-09-14T11:11:36.565Z,99.90
2022-09-14T11:14:14.599Z,99.90
2022-09-14T11:17:03.315Z,99.90
2022-09-14T11:19:43.047Z,99.90
2022-09-14T11:22:18.490Z,99.90
2022-09-14T11:24:50.975Z,99.90
2022-09-14T11:27:25.605Z,99.90
2022-09-14T11:29:54.728Z,99.90
2022-09-14T11:32:24.868Z,99.90
2022-09-14T11:34:57.237Z,99.90
2022-09-14T11:37:32.633Z,99.90
2022-09-14T11:40:07.612Z,99.90
2022-09-14T11:42:40.319Z,99.90
2022-09-14T11:45:18.464Z,99.90
2022-09-14T11:47:52.484Z,99.90
2022-09-14T11:50:22.828Z,99.90
2022-09-14T11:52:59.598Z,99.90
2022-09-14T11:55:26.548Z,99.90
2022-09-14T11:57:53.448Z,99.90
2022-09-14T12:01:04.873Z,99.90
2022-09-14T12:03:54.246Z,99.90
2022-09-14T12:06:55.473Z,99.90
2022-09-14T12:09:43.743Z,99.90
2022-09-14T12:12:36.421Z,99.90
2022-09-14T12:15:12.842Z,99.90
2022-09-14T12:17:40.728Z,99.90
2022-09-14T12:20:44.059Z,99.90
2022-09-14T12:23:25.325Z,99.90
2022-09-14T12:26:02.501Z,99.90
2022-09-14T12:28:39.217Z,99.90
2022-09-14T12:31:10.609Z,99.90
2022-09-14T12:34:14.980Z,99.90
2022-09-14T12:37:26.609Z,99.90
2022-09-14T12:40:26.981Z,99.90
2022-09-14T12:42:55.121Z,99.90
2022-09-14T12:45:47.806Z,99.90
2022-09-14T12:48:56.791Z,99.90
2022-09-14T12:51:42.184Z,99.90
2022-09-14T12:54:20.192Z,99.90
2022-09-14T12:56:58.013Z,99.90
2022-09-14T12:59:36.930Z,99.90
2022-09-14T13:02:23.117Z,99.90
2022-09-14T13:04:54.159Z,99.90
2022-09-14T13:07:22.533Z,99.90
2022-09-14T13:09:52.129Z,99.90
2022-09-14T13:12:27.112Z,99.90
2022-09-14T13:14:58.894Z,99.90
2022-09-14T13:17:25.586Z,99.90
2022-09-14T13:19:56.229Z,99.90
2022-09-14T13:22:24.574Z,99.90
2022-09-14T13:24:51.676Z,99.90
2022-09-14T13:27:23.482Z,99.90
2022-09-14T13:30:00.277Z,99.90
2022-09-14T13:32:27.262Z,99.90
2022-09-14T13:34:54.718Z,99.90
2022-09-14T13:37:23.112Z,99.90
2022-09-14T13:39:52.879Z,99.90
2022-09-14T13:42:20.562Z,99.90
2022-09-14T13:44:47.806Z,99.90
2022-09-14T13:47:18.993Z,99.90
2022-09-14T13:49:47.119Z,99.90
2022-09-14T13:52:57.153Z,99.90
2022-09-14T13:55:22.796Z,99.90
2022-09-14T13:58:19.622Z,99.90
2022-09-14T14:00:58.335Z,99.90
2022-09-14T14:03:33.305Z,99.90
2022-09-14T14:06:04.969Z,99.90
2022-09-14T14:08:36.416Z,99.90
2022-09-14T14:11:05.774Z,99.90
2022-09-14T14:13:34.529Z,99.90
2022-09-14T14:16:16.378Z,99.90
2022-09-14T14:18:51.548Z,99.90
2022-09-14T14:21:27.509Z,99.90
2022-09-14T14:24:13.286Z,99.90
2022-09-14T14:26:47.903Z,99.90
2022-09-14T14:29:14.800Z,99.90
2022-09-14T14:31:41.965Z,99.90
2022-09-14T14:34:18.479Z,99.90
2022-09-14T14:36:45.183Z,99.90
2022-09-14T14:39:11.903Z,99.90
2022-09-14T14:41:38.744Z,99.90
2022-09-14T14:44:09.162Z,99.90
2022-09-14T14:46:35.930Z,99.90
2022-09-14T14:49:02.708Z,99.90
2022-09-14T14:51:30.883Z,99.90
2022-09-14T14:53:57.555Z,99.90
2022-09-14T14:56:24.282Z,99.90
2022-09-14T14:58:51.151Z,99.90
2022-09-14T15:01:18.032Z,99.90
2022-09-14T15:03:44.796Z,99.90
2022-09-14T15:06:12.942Z,99.90
2022-09-14T15:08:41.188Z,99.90
2022-09-14T15:11:14.110Z,99.90
2022-09-14T15:13:40.784Z,99.90
2022-09-14T15:16:07.607Z,99.90
2022-09-14T15:18:34.307Z,99.90
2022-09-14T15:21:01.059Z,99.90
2022-09-14T15:23:27.760Z,99.90
2022-09-14T15:25:55.805Z,99.90
2022-09-14T15:28:22.501Z,99.90
2022-09-14T15:30:49.198Z,99.90
2022-09-14T15:33:16.133Z,99.90
2022-09-14T15:35:42.814Z,99.90
2022-09-14T15:38:09.546Z,99.90
2022-09-14T15:40:36.423Z,99.90
2022-09-14T15:43:04.533Z,99.90
2022-09-14T15:45:31.476Z,99.90
2022-09-14T15:47:58.193Z,99.90
2022-09-14T15:50:24.898Z,99.90
2022-09-14T15:52:51.729Z,99.90
2022-09-14T15:55:18.423Z,99.90
2022-09-14T15:57:45.114Z,99.90
2022-09-14T16:00:14.250Z,99.90
2022-09-14T16:02:41.175Z,99.90
2022-09-14T16:05:08.571Z,99.90
2022-09-14T16:07:35.285Z,99.90
2022-09-14T16:10:02.110Z,99.90
2022-09-14T16:12:28.861Z,99.90
2022-09-14T16:14:55.644Z,99.90
2022-09-14T16:17:23.708Z,99.90
2022-09-14T16:19:50.370Z,99.90
2022-09-14T16:22:17.029Z,99.90
2022-09-14T16:24:43.878Z,99.90
2022-09-14T16:27:10.758Z,99.90
2022-09-14T16:29:37.525Z,99.90
2022-09-14T16:32:04.305Z,99.90
2022-09-14T16:34:32.371Z,99.90
2022-09-14T16:36:59.055Z,99.90
2022-09-14T16:39:27.674Z,99.90
2022-09-14T16:41:54.571Z,99.90
2022-09-14T16:44:22.540Z,99.90
2022-09-14T16:46:49.505Z,99.90
2022-09-14T16:49:16.847Z,99.90
2022-09-14T16:51:44.949Z,99.90
2022-09-14T16:54:14.968Z,99.90
2022-09-14T16:56:41.687Z,99.90
2022-09-14T16:59:08.366Z,99.90
2022-09-14T17:01:36.678Z,99.90
2022-09-14T17:04:05.677Z,99.90
2022-09-14T17:06:33.186Z,99.90
2022-09-14T17:09:04.638Z,99.90
2022-09-14T17:11:33.106Z,99.90
2022-09-14T17:14:00.120Z,99.90
2022-09-14T17:16:28.092Z,99.90
2022-09-14T17:18:58.635Z,99.90
2022-09-14T17:21:27.601Z,99.90
2022-09-14T17:23:54.328Z,99.90
2022-09-14T17:26:23.224Z,99.90
2022-09-14T17:28:51.424Z,99.90
2022-09-14T17:31:20.278Z,99.90
2022-09-14T17:33:47.191Z,99.90
2022-09-14T17:36:15.868Z,99.90
2022-09-14T17:38:44.024Z,99.90
2022-09-14T17:41:13.342Z,99.90
2022-09-14T17:43:42.233Z,99.90
2022-09-14T17:46:13.012Z,99.90
2022-09-14T17:48:40.945Z,99.90
2022-09-14T17:51:09.589Z,99.90
2022-09-14T17:53:37.529Z,99.90
2022-09-14T17:56:05.751Z,99.90
2022-09-14T17:58:32.485Z,99.90
2022-09-14T18:01:15.447Z,99.90
2022-09-14T18:03:44.246Z,99.90
2022-09-14T18:06:12.314Z,99.90
2022-09-14T18:08:40.082Z,99.90
2022-09-14T18:11:08.269Z,99.90
2022-09-14T18:13:35.172Z,99.90
2022-09-14T18:16:02.097Z,99.90
2022-09-14T18:18:30.286Z,99.90
2022-09-14T18:20:58.945Z,99.90
2022-09-14T18:23:25.977Z,99.90
2022-09-14T18:25:52.789Z,99.90
2022-09-14T18:28:19.572Z,99.90
2022-09-14T18:30:46.335Z,99.90
2022-09-14T18:33:13.036Z,99.90
2022-09-14T18:35:41.106Z,99.90
2022-09-14T18:38:11.198Z,99.90
2022-09-14T18:40:38.400Z,99.90
2022-09-14T18:43:05.182Z,99.90
2022-09-14T18:45:34.177Z,99.90
2022-09-14T18:48:01.230Z,99.90
2022-09-14T18:50:27.983Z,99.90
2022-09-14T18:52:56.122Z,99.90
2022-09-14T18:55:22.789Z,99.90
2022-09-14T18:57:50.021Z,99.90
2022-09-14T19:00:18.772Z,99.90
2022-09-14T19:02:50.409Z,99.90
2022-09-14T19:05:17.218Z,99.90
2022-09-14T19:07:44.066Z,99.90
2022-09-14T19:10:12.252Z,99.90
2022-09-14T19:12:38.952Z,99.90
2022-09-14T19:15:06.763Z,99.90
2022-09-14T19:17:33.461Z,99.90
2022-09-14T19:20:00.201Z,99.90
2022-09-14T19:22:28.550Z,99.90
2022-09-14T19:24:55.321Z,99.90
2022-09-14T19:27:23.525Z,99.90
2022-09-14T19:29:51.735Z,99.90
2022-09-14T19:32:18.465Z,99.90
2022-09-14T19:34:45.277Z,99.90
2022-09-14T19:37:11.985Z,99.90
2022-09-14T19:39:38.840Z,99.50
2022-09-14T19:42:05.808Z,99.60
2022-09-14T19:44:33.826Z,99.70
2022-09-14T19:47:00.517Z,99.90
2022-09-14T19:49:27.516Z,99.90
2022-09-14T19:51:54.257Z,99.70
2022-09-14T19:54:21.099Z,99.60
2022-09-14T19:56:47.846Z,99.70
2022-09-14T19:59:14.880Z,99.90
2022-09-14T20:01:43.639Z,99.90
2022-09-14T20:04:10.743Z,99.90
2022-09-14T20:06:40.170Z,99.70
2022-09-14T20:09:09.103Z,99.70
2022-09-14T20:11:37.918Z,99.40
2022-09-14T20:14:06.441Z,99.50
2022-09-14T20:16:35.647Z,99.70
2022-09-14T20:19:07.813Z,99.60
2022-09-14T20:21:34.654Z,99.80
2022-09-14T20:24:17.970Z,99.50
2022-09-14T20:26:45.588Z,99.30
2022-09-14T20:29:12.623Z,99.60
2022-09-14T20:31:39.549Z,99.30
2022-09-14T20:34:07.910Z,99.40
2022-09-14T20:36:34.595Z,99.50
2022-09-14T20:39:01.362Z,99.10
2022-09-14T20:41:29.817Z,99.30
2022-09-14T20:43:56.796Z,99.10
2022-09-14T20:46:25.070Z,98.90
2022-09-14T20:48:52.840Z,98.90
2022-09-14T20:51:22.702Z,99.00
2022-09-14T20:53:49.650Z,99.00
2022-09-14T20:56:18.253Z,99.00
2022-09-14T20:58:45.811Z,99.60
2022-09-14T21:01:14.194Z,99.30
2022-09-14T21:03:42.654Z,99.50
2022-09-14T21:06:11.401Z,99.10
2022-09-14T21:08:40.215Z,99.20
2022-09-14T21:11:09.596Z,99.30
2022-09-14T21:13:36.472Z,99.70
2022-09-14T21:16:09.092Z,99.90
2022-09-14T21:18:35.979Z,99.40
2022-09-14T21:21:05.574Z,99.90
2022-09-14T21:23:32.405Z,99.90
2022-09-14T21:26:00.989Z,99.80
2022-09-14T21:28:27.766Z,99.50
2022-09-14T21:31:04.260Z,99.20
2022-09-14T21:33:32.226Z,99.70
2022-09-14T21:36:03.133Z,99.90
2022-09-14T21:38:29.889Z,99.90
2022-09-14T21:40:56.602Z,99.80
2022-09-14T21:43:24.959Z,99.90
2022-09-14T21:45:51.685Z,99.90
2022-09-14T21:48:18.621Z,99.90
2022-09-14T21:50:47.514Z,99.80
2022-09-14T21:53:14.319Z,99.90
2022-09-14T21:55:41.706Z,99.30
2022-09-14T21:58:08.554Z,98.80
2022-09-14T22:00:36.733Z,98.40
2022-09-14T22:03:03.670Z,98.60
2022-09-14T22:05:30.396Z,98.50
2022-09-14T22:07:57.099Z,98.90
2022-09-14T22:10:23.786Z,99.50
2022-09-14T22:12:50.613Z,99.70
2022-09-14T22:15:17.328Z,99.40
2022-09-14T22:17:45.382Z,99.90
2022-09-14T22:20:12.255Z,99.90
2022-09-14T22:22:38.978Z,99.80
2022-09-14T22:25:06.215Z,99.90
2022-09-14T22:27:32.913Z,99.60
2022-09-14T22:29:59.658Z,99.90
2022-09-14T22:32:26.452Z,99.90
2022-09-14T22:34:54.487Z,99.90
2022-09-14T22:37:21.177Z,99.90
2022-09-14T22:39:47.940Z,99.90
2022-09-14T22:42:14.679Z,99.90
2022-09-14T22:44:41.422Z,99.80
2022-09-14T22:47:08.143Z,99.80
2022-09-14T22:49:34.822Z,99.90
2022-09-14T22:52:03.104Z,99.90
2022-09-14T22:54:29.811Z,99.90
2022-09-14T22:56:56.525Z,99.90
2022-09-14T22:59:23.319Z,99.90
2022-09-14T23:01:50.107Z,99.90
2022-09-14T23:04:16.910Z,99.90
2022-09-14T23:06:47.072Z,99.90
2022-09-14T23:09:18.028Z,99.90
2022-09-14T23:11:45.127Z,99.90
2022-09-14T23:14:12.245Z,99.90
2022-09-14T23:16:39.001Z,99.90
2022-09-14T23:19:06.554Z,99.90
2022-09-14T23:21:34.151Z,99.90
2022-09-14T23:24:03.169Z,99.90
2022-09-14T23:26:31.783Z,99.90
2022-09-14T23:29:00.847Z,99.90
2022-09-14T23:31:29.245Z,99.90
2022-09-14T23:33:57.503Z,99.90
2022-09-14T23:36:25.246Z,99.90
2022-09-14T23:38:53.046Z,99.90
2022-09-14T23:41:21.560Z,99.90
2022-09-14T23:43:49.770Z,99.90
2022-09-14T23:46:17.574Z,99.90
2022-09-14T23:48:45.072Z,99.90
2022-09-14T23:51:12.489Z,99.90
2022-09-14T23:53:39.913Z,99.90
2022-09-14T23:56:07.411Z,99.90
2022-09-14T23:58:34.850Z,99.90
